<?xml version="1.0" encoding="utf-8"?>
<gpx xmlns:xsi="http://www.w3.org/2001/XMLSchema-instance" xmlns:xsd="http://www.w3.org/2001/XMLSchema" version="1.1" creator="Shapelink.com" xmlns="http://www.topografix.com/GPX/1/1" xmlns:gpxtpx="http://www.garmin.com/xmlschemas/TrackPointExtension/v1">
  <metadata>
    <name>Övrigt 1.44 km, 2020-07-07</name>
    <desc></desc>
    <author><name>Marian Moron</name></author> 
    <time>2020-07-07T20:38:11Z</time>
  </metadata>
  <trk>
    <name>Övrigt 1.44 km, 2020-07-07</name>
    <trkseg>
      <trkpt lat="51.229813467947" lon="4.458414584982">
        <ele>8.2</ele>
        <time>2020-07-07T20:38:11Z</time>
      </trkpt>
      <trkpt lat="51.229849593936" lon="4.458817167639">
        <ele>9.2</ele>
        <time>2020-07-07T20:38:33Z</time>
      </trkpt>
      <trkpt lat="51.229885971382" lon="4.458976256101">
        <ele>8.8</ele>
        <time>2020-07-07T20:38:41Z</time>
      </trkpt>
      <trkpt lat="51.22989452092" lon="4.45914900706">
        <ele>7.2</ele>
        <time>2020-07-07T20:38:51Z</time>
      </trkpt>
      <trkpt lat="51.229882031889" lon="4.459291666998">
        <ele>7.6</ele>
        <time>2020-07-07T20:38:58Z</time>
      </trkpt>
      <trkpt lat="51.229886558115" lon="4.459336258706">
        <ele>7.6</ele>
        <time>2020-07-07T20:39:00Z</time>
      </trkpt>
      <trkpt lat="51.229978172282" lon="4.459341036389">
        <ele>7</ele>
        <time>2020-07-07T20:39:20Z</time>
      </trkpt>
      <trkpt lat="51.230343455484" lon="4.459071139209">
        <ele>2.8</ele>
        <time>2020-07-07T20:40:43Z</time>
      </trkpt>
      <trkpt lat="51.230390142667" lon="4.4592294733">
        <ele>0</ele>
        <time>2020-07-07T20:41:14Z</time>
      </trkpt>
      <trkpt lat="51.230535987727" lon="4.459817379766">
        <ele>0</ele>
        <time>2020-07-07T20:42:10Z</time>
      </trkpt>
      <trkpt lat="51.230644617151" lon="4.460441915135">
        <ele>0</ele>
        <time>2020-07-07T20:43:10Z</time>
      </trkpt>
      <trkpt lat="51.230677893294" lon="4.460593124611">
        <ele>0</ele>
        <time>2020-07-07T20:43:23Z</time>
      </trkpt>
      <trkpt lat="51.230501119023" lon="4.460749782322">
        <ele>1.2</ele>
        <time>2020-07-07T20:43:55Z</time>
      </trkpt>
      <trkpt lat="51.230482259748" lon="4.460760511154">
        <ele>2</ele>
        <time>2020-07-07T20:43:57Z</time>
      </trkpt>
      <trkpt lat="51.230035420659" lon="4.460864698171">
        <ele>9.8</ele>
        <time>2020-07-07T20:44:37Z</time>
      </trkpt>
      <trkpt lat="51.229597131108" lon="4.461065360857">
        <ele>0</ele>
        <time>2020-07-07T20:45:20Z</time>
      </trkpt>
      <trkpt lat="51.229570225209" lon="4.461149179857">
        <ele>0</ele>
        <time>2020-07-07T20:45:26Z</time>
      </trkpt>
      <trkpt lat="51.229413986593" lon="4.461625271777">
        <ele>0</ele>
        <time>2020-07-07T20:47:17Z</time>
      </trkpt>
      <trkpt lat="51.229145765793" lon="4.461977982129">
        <ele>0</ele>
        <time>2020-07-07T20:49:01Z</time>
      </trkpt>
      <trkpt lat="51.228707308604" lon="4.461893911672">
        <ele>0</ele>
        <time>2020-07-07T20:51:15Z</time>
      </trkpt>
      <trkpt lat="51.228547381952" lon="4.461894498405">
        <ele>0</ele>
        <time>2020-07-07T20:51:44Z</time>
      </trkpt>
      <trkpt lat="51.228423581289" lon="4.461248924467">
        <ele>13</ele>
        <time>2020-07-07T20:52:27Z</time>
      </trkpt>
      <trkpt lat="51.228588034167" lon="4.461235345789">
        <ele>22</ele>
        <time>2020-07-07T20:53:39Z</time>
      </trkpt>
      <trkpt lat="51.228993299032" lon="4.461150940056">
        <ele>8.6</ele>
        <time>2020-07-07T20:55:04Z</time>
      </trkpt>
      <trkpt lat="51.229049122486" lon="4.461175499023">
        <ele>5.8</ele>
        <time>2020-07-07T20:55:47Z</time>
      </trkpt>
      <trkpt lat="51.229078207679" lon="4.461343807575">
        <ele>6</ele>
        <time>2020-07-07T20:55:57Z</time>
      </trkpt>
      <trkpt lat="51.228887351816" lon="4.461863233918">
        <ele>1.8</ele>
        <time>2020-07-07T20:56:34Z</time>
      </trkpt>
      <trkpt lat="51.228854578587" lon="4.461866838135">
        <ele>1.6</ele>
        <time>2020-07-07T20:56:37Z</time>
      </trkpt>
      <trkpt lat="51.228447888799" lon="4.461709258415">
        <ele>0</ele>
        <time>2020-07-07T20:57:28Z</time>
      </trkpt>
      <trkpt lat="51.228391897707" lon="4.461229981373">
        <ele>6</ele>
        <time>2020-07-07T20:57:52Z</time>
      </trkpt>
      <trkpt lat="51.228258122583" lon="4.460555825156">
        <ele>0</ele>
        <time>2020-07-07T20:58:46Z</time>
      </trkpt>
      <trkpt lat="51.228044132676" lon="4.460423977869">
        <ele>11.6</ele>
        <time>2020-07-07T20:59:42Z</time>
      </trkpt>
      <trkpt lat="51.227970371956" lon="4.460492541811">
        <ele>11</ele>
        <time>2020-07-07T20:59:49Z</time>
      </trkpt>
      <trkpt lat="51.227597125949" lon="4.460894873011">
        <ele>16</ele>
        <time>2020-07-07T21:00:47Z</time>
      </trkpt>
      <trkpt lat="51.227551109318" lon="4.460812227477">
        <ele>16.4</ele>
        <time>2020-07-07T21:00:53Z</time>
      </trkpt>
      <trkpt lat="51.227268890745" lon="4.460213759817">
        <ele>1.6</ele>
        <time>2020-07-07T21:01:29Z</time>
      </trkpt>
      <trkpt lat="51.227068395697" lon="4.459568185879">
        <ele>0</ele>
        <time>2020-07-07T21:02:15Z</time>
      </trkpt>
      <trkpt lat="51.227101085107" lon="4.459103828619">
        <ele>5.6</ele>
        <time>2020-07-07T21:02:56Z</time>
      </trkpt>
      <trkpt lat="51.227214073119" lon="4.458997965222">
        <ele>7.8</ele>
        <time>2020-07-07T21:03:10Z</time>
      </trkpt>
      <trkpt lat="51.227644232227" lon="4.458741143806">
        <ele>5.2</ele>
        <time>2020-07-07T21:03:50Z</time>
      </trkpt>
      <trkpt lat="51.228083359968" lon="4.458554227436">
        <ele>9.8</ele>
        <time>2020-07-07T21:04:35Z</time>
      </trkpt>
      <trkpt lat="51.228518548216" lon="4.458323725186">
        <ele>1.2</ele>
        <time>2020-07-07T21:05:12Z</time>
      </trkpt>
      <trkpt lat="51.228899924666" lon="4.458109064727">
        <ele>6.8</ele>
        <time>2020-07-07T21:05:58Z</time>
      </trkpt>
      <trkpt lat="51.22908566757" lon="4.458107472166">
        <ele>7.4</ele>
        <time>2020-07-07T21:06:16Z</time>
      </trkpt>
      <trkpt lat="51.229121625921" lon="4.458099509361">
        <ele>6.6</ele>
        <time>2020-07-07T21:06:19Z</time>
      </trkpt>
      <trkpt lat="51.229564441698" lon="4.457895661553">
        <ele>10.2</ele>
        <time>2020-07-07T21:07:14Z</time>
      </trkpt>
      <trkpt lat="51.229678686995" lon="4.457854171148">
        <ele>7</ele>
        <time>2020-07-07T21:07:37Z</time>
      </trkpt>
    </trkseg>
  </trk>
</gpx>